Hlavní strana
METAR-TAF:

METAR-TAF

Letiště :

Flin Flon, Manitoba, Kanada

zeměpisná šířka: 54-41N, zeměpisná délka: 101-41W, výška: 304 m

Aktuální stav počasí

Zpráva byla vytvořena před 5 hodinami a 52 minutami, v 00:00 UTC
Jihojihozápadní vítr 3 kt
Teplota -15°C
Vlhkost vzduchu 85%
Tlak 1013 hPa
Viditelnost: 24.1 km
Oblačno až skoro zataženo ve výšce 23000 ft

METAR: CYFO 210000Z 20003KT 15SM BKN230 M15/M17 A2990 RMK CI5 LAST OBS/NEXT 211200UTC SLP161

Čas: 23:52 (05:52 UTC)


TAF: chybějící

Stav a předpovědi počasí z více než 4 000 letišť (zprávy METAR a TAF).

Červené a žluté tečky na mapě představují dostupné meteorologické stanice.

Když kurzor umístíte na tečku, zobrazí se název stanice.

Pak kliknutím zobrazíte stav a předpověď počasí.

Chcete-li změnit mapu, kliknutím na zelené tlačítko se znaménkem +mapu přiblížíte, kliknutím na zelené tlačítko se znaménkem – mapu oddálíte a kliknutím na zelené šipky přejdete na sousední mapy.


METAR-TAF: